createdAt,value
2023-04-19T00:01:17.000Z,100430.54
2023-04-19T00:03:44.332Z,100429.43
2023-04-19T00:06:14.476Z,100428.44
2023-04-19T00:08:41.845Z,100425.32
2023-04-19T00:11:08.967Z,100427.20
2023-04-19T00:13:36.184Z,100430.25
2023-04-19T00:16:02.986Z,100428.02
2023-04-19T00:18:29.883Z,100422.86
2023-04-19T00:20:56.872Z,100419.35
2023-04-19T00:23:25.070Z,100415.60
2023-04-19T00:25:51.638Z,100419.98
2023-04-19T00:28:19.326Z,100421.44
2023-04-19T00:30:46.157Z,100421.14
2023-04-19T00:33:13.131Z,100419.91
2023-04-19T00:35:41.194Z,100417.02
2023-04-19T00:38:07.962Z,100414.23
2023-04-19T00:40:35.807Z,100411.35
2023-04-19T00:43:04.685Z,100406.02
2023-04-19T00:45:32.285Z,100406.30
2023-04-19T00:47:59.724Z,100407.73
2023-04-19T00:50:26.719Z,100402.67
2023-04-19T00:52:53.508Z,100398.98
2023-04-19T00:55:20.424Z,100399.13
2023-04-19T00:57:47.448Z,100401.10
2023-04-19T01:00:16.332Z,100397.80
2023-04-19T01:02:44.887Z,100399.38
2023-04-19T01:05:12.027Z,100398.33
2023-04-19T01:07:40.066Z,100400.29
2023-04-19T01:10:06.935Z,100397.07
2023-04-19T01:12:33.767Z,100393.39
2023-04-19T01:15:01.502Z,100395.55
2023-04-19T01:17:29.529Z,100391.52
2023-04-19T01:20:01.092Z,100387.38
2023-04-19T01:22:29.501Z,100389.70
2023-04-19T01:24:56.611Z,100383.40
2023-04-19T01:27:23.414Z,100379.93
2023-04-19T01:29:50.737Z,100379.73
2023-04-19T01:32:17.448Z,100383.00
2023-04-19T01:34:44.082Z,100384.48
2023-04-19T01:37:10.941Z,100381.52
2023-04-19T01:39:37.680Z,100382.15
2023-04-19T01:42:04.473Z,100380.69
2023-04-19T01:44:31.279Z,100379.52
2023-04-19T01:46:59.805Z,100376.23
2023-04-19T01:49:26.543Z,100374.77
2023-04-19T01:51:53.409Z,100372.04
2023-04-19T01:54:20.579Z,100373.21
2023-04-19T01:56:49.502Z,100372.66
2023-04-19T01:59:16.273Z,100370.83
2023-04-19T02:01:43.122Z,100368.96
2023-04-19T02:04:09.999Z,100365.19
2023-04-19T02:06:37.544Z,100365.85
2023-04-19T02:09:04.834Z,100365.75
2023-04-19T02:11:32.804Z,100362.67
2023-04-19T02:13:59.648Z,100359.80
2023-04-19T02:16:27.104Z,100357.62
2023-04-19T02:18:53.794Z,100358.73
2023-04-19T02:21:20.549Z,100356.27
2023-04-19T02:23:47.338Z,100357.98
2023-04-19T02:26:13.997Z,100356.96
2023-04-19T02:28:42.928Z,100359.38
2023-04-19T02:31:09.817Z,100363.13
2023-04-19T02:33:38.251Z,100366.84
2023-04-19T02:36:05.305Z,100368.50
2023-04-19T02:38:33.918Z,100366.70
2023-04-19T02:41:03.638Z,100368.48
2023-04-19T02:43:30.550Z,100368.45
2023-04-19T02:45:57.576Z,100373.05
2023-04-19T02:48:24.310Z,100373.08
2023-04-19T02:50:51.122Z,100373.30
2023-04-19T02:53:18.621Z,100373.96
2023-04-19T02:55:46.509Z,100368.99
2023-04-19T02:58:16.191Z,100368.69
2023-04-19T03:00:51.339Z,100368.30
2023-04-19T03:03:21.110Z,100367.36
2023-04-19T03:05:47.751Z,100367.41
2023-04-19T03:08:14.609Z,100360.48
2023-04-19T03:10:42.111Z,100357.38
2023-04-19T03:13:08.936Z,100361.70
2023-04-19T03:15:35.846Z,100361.31
2023-04-19T03:18:03.123Z,100360.14
2023-04-19T03:20:30.363Z,100359.98
2023-04-19T03:22:57.168Z,100359.70
2023-04-19T03:25:24.455Z,100356.63
2023-04-19T03:27:57.713Z,100351.29
2023-04-19T03:30:41.775Z,100351.17
2023-04-19T03:33:08.581Z,100348.88
2023-04-19T03:35:35.550Z,100348.66
2023-04-19T03:38:08.277Z,100349.95
2023-04-19T03:40:37.207Z,100350.20
2023-04-19T03:43:03.960Z,100351.25
2023-04-19T03:45:32.556Z,100356.16
2023-04-19T03:48:02.081Z,100354.33
2023-04-19T03:50:29.663Z,100353.75
2023-04-19T03:52:56.922Z,100354.28
2023-04-19T03:55:23.602Z,100350.17
2023-04-19T03:57:50.804Z,100356.29
2023-04-19T04:00:22.236Z,100354.56
2023-04-19T04:02:52.690Z,100353.09
2023-04-19T04:05:21.373Z,100354.52
2023-04-19T04:07:48.314Z,100353.36
2023-04-19T04:10:15.361Z,100351.10
2023-04-19T04:12:42.797Z,100349.89
2023-04-19T04:15:11.004Z,100353.96
2023-04-19T04:17:41.548Z,100348.79
2023-04-19T04:20:09.294Z,100350.96
2023-04-19T04:22:36.961Z,100349.81
2023-04-19T04:25:04.247Z,100346.86
2023-04-19T04:27:38.673Z,100346.21
2023-04-19T04:30:06.844Z,100345.02
2023-04-19T04:32:37.667Z,100350.59
2023-04-19T04:35:05.205Z,100353.95
2023-04-19T04:37:40.045Z,100354.20
2023-04-19T04:40:10.219Z,100353.36
2023-04-19T04:42:37.027Z,100355.86
2023-04-19T04:45:05.039Z,100358.59
2023-04-19T04:47:33.418Z,100363.63
2023-04-19T04:50:02.413Z,100363.51
2023-04-19T04:52:29.577Z,100371.02
2023-04-19T04:55:16.080Z,100372.66
2023-04-19T04:57:44.074Z,100373.88
2023-04-19T05:00:17.019Z,100369.50
2023-04-19T05:02:53.705Z,100372.23
2023-04-19T05:05:21.093Z,100372.34
2023-04-19T05:07:49.004Z,100372.44
2023-04-19T05:10:16.552Z,100372.91
2023-04-19T05:12:45.221Z,100373.50
2023-04-19T05:15:12.146Z,100370.52
2023-04-19T05:17:42.497Z,100370.45
2023-04-19T05:20:09.661Z,100373.14
2023-04-19T05:22:37.264Z,100373.60
2023-04-19T05:25:05.549Z,100370.47
2023-04-19T05:27:32.950Z,100372.05
2023-04-19T05:29:59.846Z,100370.23
2023-04-19T05:32:27.375Z,100370.98
2023-04-19T05:34:56.240Z,100373.38
2023-04-19T05:37:23.736Z,100369.02
2023-04-19T05:39:50.619Z,100362.77
2023-04-19T05:42:18.286Z,100359.64
2023-04-19T05:44:45.253Z,100359.92
2023-04-19T05:47:12.324Z,100358.45
2023-04-19T05:49:57.770Z,100357.14
2023-04-19T05:52:35.151Z,100355.66
2023-04-19T05:55:04.007Z,100356.84
2023-04-19T05:57:32.638Z,100358.02
2023-04-19T06:02:44.241Z,100359.65
2023-04-19T06:05:12.386Z,100362.17
2023-04-19T06:07:43.139Z,100363.02
2023-04-19T06:10:17.781Z,100363.92
2023-04-19T06:12:44.837Z,100363.73
2023-04-19T06:15:11.889Z,100360.84
2023-04-19T06:17:39.498Z,100359.70
2023-04-19T06:20:07.581Z,100361.65
2023-04-19T06:22:35.804Z,100359.17
2023-04-19T06:25:03.038Z,100357.20
2023-04-19T06:27:30.251Z,100357.76
2023-04-19T06:29:57.183Z,100358.52
2023-04-19T06:32:25.304Z,100358.75
2023-04-19T06:34:52.000Z,100355.40
2023-04-19T06:37:18.663Z,100351.72
2023-04-19T06:39:45.450Z,100350.77
2023-04-19T06:42:12.038Z,100349.14
2023-04-19T06:44:38.993Z,100341.15
2023-04-19T06:47:06.107Z,100338.58
2023-04-19T06:49:32.893Z,100336.90
2023-04-19T06:51:59.601Z,100338.17
2023-04-19T06:54:26.224Z,100340.58
2023-04-19T06:56:52.823Z,100343.57
2023-04-19T06:59:20.049Z,100342.91
2023-04-19T07:01:47.245Z,100342.64
2023-04-19T07:04:14.367Z,100341.32
2023-04-19T07:06:41.255Z,100344.36
2023-04-19T07:09:07.959Z,100343.61
2023-04-19T07:11:35.459Z,100336.56
2023-04-19T07:14:02.366Z,100341.40
2023-04-19T07:16:29.225Z,100341.73
2023-04-19T07:18:56.562Z,100342.73
2023-04-19T07:21:25.988Z,100343.85
2023-04-19T07:23:53.195Z,100341.39
2023-04-19T07:26:19.863Z,100339.85
2023-04-19T07:28:46.420Z,100342.97
2023-04-19T07:31:17.099Z,100348.23
2023-04-19T07:33:44.385Z,100350.23
2023-04-19T07:36:11.096Z,100351.52
2023-04-19T07:38:37.958Z,100350.16
2023-04-19T07:41:05.463Z,100347.20
2023-04-19T07:43:32.207Z,100342.25
2023-04-19T07:45:59.026Z,100339.81
2023-04-19T07:48:26.541Z,100338.86
2023-04-19T07:50:53.482Z,100333.95
2023-04-19T07:53:20.300Z,100337.42
2023-04-19T07:55:46.937Z,100337.13
2023-04-19T07:58:14.184Z,100335.82
2023-04-19T08:00:40.970Z,100336.27
2023-04-19T08:03:08.070Z,100329.36
2023-04-19T08:05:35.382Z,100333.13
2023-04-19T08:08:02.375Z,100328.03
2023-04-19T08:10:29.915Z,100325.48
2023-04-19T08:13:04.415Z,100321.69
2023-04-19T08:18:04.294Z,100315.31
2023-04-19T08:20:31.785Z,100316.92
2023-04-19T08:23:00.570Z,100313.98
2023-04-19T08:25:32.950Z,100309.67
2023-04-19T08:27:59.712Z,100307.96
2023-04-19T08:30:26.451Z,100307.03
2023-04-19T08:32:56.286Z,100303.20
2023-04-19T08:35:24.729Z,100301.00
2023-04-19T08:37:51.716Z,100300.80
2023-04-19T08:40:18.517Z,100298.92
2023-04-19T08:42:45.295Z,100296.74
2023-04-19T08:45:27.068Z,100295.11
2023-04-19T08:48:01.428Z,100293.11
2023-04-19T08:50:36.031Z,100290.56
2023-04-19T08:55:50.998Z,100295.48
2023-04-19T08:59:15.221Z,100297.44
2023-04-19T09:01:44.827Z,100293.48
2023-04-19T09:06:44.597Z,100297.29
2023-04-19T09:11:48.069Z,100299.13
2023-04-19T09:14:17.235Z,100302.55
2023-04-19T09:16:45.406Z,100300.49
2023-04-19T09:19:23.239Z,100302.73
2023-04-19T09:21:54.849Z,100298.96
2023-04-19T09:25:14.468Z,100300.66
2023-04-19T09:27:28.404Z,100298.31
2023-04-19T09:29:57.254Z,100298.89
2023-04-19T09:32:26.012Z,100298.78
2023-04-19T09:34:58.086Z,100296.66
2023-04-19T09:37:39.151Z,100290.98
2023-04-19T09:40:24.791Z,100291.11
2023-04-19T09:48:05.527Z,100288.17
2023-04-19T09:50:46.797Z,100287.98
2023-04-19T09:53:23.554Z,100287.40
2023-04-19T09:56:01.595Z,100288.21
2023-04-19T09:58:42.507Z,100289.36
2023-04-19T10:01:19.432Z,100287.50
2023-04-19T10:03:49.551Z,100285.73
2023-04-19T10:08:50.313Z,100279.02
2023-04-19T10:11:26.842Z,100280.16
2023-04-19T10:13:57.849Z,100280.08
2023-04-19T10:16:26.572Z,100270.77
2023-04-19T10:18:54.598Z,100272.18
2023-04-19T10:21:22.763Z,100274.36
2023-04-19T10:23:50.755Z,100271.33
2023-04-19T10:26:19.035Z,100279.59
2023-04-19T10:28:48.263Z,100279.14
2023-04-19T10:31:16.837Z,100280.35
2023-04-19T10:33:44.947Z,100279.91
2023-04-19T10:36:14.736Z,100282.77
2023-04-19T10:38:49.477Z,100286.59
2023-04-19T10:41:20.990Z,100285.25
2023-04-19T10:43:55.065Z,100284.35
2023-04-19T10:46:24.543Z,100291.77
2023-04-19T10:48:59.891Z,100296.69
2023-04-19T10:51:28.760Z,100302.47
2023-04-19T10:54:03.559Z,100302.60
2023-04-19T10:56:35.078Z,100306.27
2023-04-19T10:59:10.627Z,100308.27
2023-04-19T11:01:44.909Z,100312.65
2023-04-19T11:04:42.290Z,100316.16
2023-04-19T11:07:11.174Z,100320.92
2023-04-19T11:09:42.309Z,100321.21
2023-04-19T11:12:14.922Z,100326.30
2023-04-19T11:14:44.359Z,100328.52
2023-04-19T11:17:16.654Z,100326.55
2023-04-19T11:19:57.587Z,100322.75
2023-04-19T11:22:33.082Z,100327.23
2023-04-19T11:25:21.073Z,100322.40
2023-04-19T11:27:53.526Z,100319.52
2023-04-19T11:30:23.366Z,100324.30
2023-04-19T11:32:55.818Z,100327.91
2023-04-19T11:35:28.022Z,100324.31
2023-04-19T11:37:56.820Z,100323.73
2023-04-19T11:40:26.252Z,100319.83
2023-04-19T11:43:00.324Z,100322.64
2023-04-19T11:45:39.627Z,100323.21
2023-04-19T11:48:15.774Z,100325.34
2023-04-19T11:50:44.349Z,100321.19
2023-04-19T11:53:17.325Z,100321.55
2023-04-19T11:55:51.390Z,100321.73
2023-04-19T11:58:39.984Z,100318.45
2023-04-19T12:01:09.301Z,100321.14
2023-04-19T12:03:44.977Z,100317.06
2023-04-19T12:06:17.249Z,100318.67
2023-04-19T12:08:47.348Z,100320.35
2023-04-19T12:11:16.534Z,100322.02
2023-04-19T12:13:44.683Z,100323.58
2023-04-19T12:16:13.386Z,100327.71
2023-04-19T12:18:50.048Z,100326.45
2023-04-19T12:21:28.271Z,100324.70
2023-04-19T12:23:57.365Z,100326.46
2023-04-19T12:26:27.036Z,100325.66
2023-04-19T12:28:55.848Z,100329.23
2023-04-19T12:31:24.083Z,100333.21
2023-04-19T12:33:52.184Z,100330.79
2023-04-19T12:36:21.215Z,100333.64
2023-04-19T12:38:49.355Z,100334.14
2023-04-19T12:41:17.504Z,100336.70
2023-04-19T12:43:45.833Z,100341.16
2023-04-19T12:46:14.007Z,100335.08
2023-04-19T12:48:42.096Z,100336.97
2023-04-19T12:51:10.264Z,100340.98
2023-04-19T12:53:38.544Z,100341.58
2023-04-19T12:56:07.635Z,100345.38
2023-04-19T12:58:35.747Z,100340.73
2023-04-19T13:01:03.893Z,100340.90
2023-04-19T13:03:33.369Z,100340.94
2023-04-19T13:06:01.698Z,100343.44
2023-04-19T13:08:44.181Z,100342.62
2023-04-19T13:11:14.248Z,100337.81
2023-04-19T13:13:42.415Z,100337.39
2023-04-19T13:16:11.151Z,100337.52
2023-04-19T13:18:39.415Z,100336.99
2023-04-19T13:21:08.534Z,100337.10
2023-04-19T13:23:36.870Z,100337.25
2023-04-19T13:26:05.136Z,100340.92
2023-04-19T13:28:36.003Z,100338.97
2023-04-19T13:31:05.135Z,100340.73
2023-04-19T13:33:34.002Z,100335.81
2023-04-19T13:36:02.639Z,100337.08
2023-04-19T13:38:31.249Z,100340.64
2023-04-19T13:40:59.785Z,100340.62
2023-04-19T13:43:27.821Z,100341.39
2023-04-19T13:45:55.918Z,100339.89
2023-04-19T13:48:24.457Z,100339.76
2023-04-19T13:50:52.678Z,100341.21
2023-04-19T13:53:20.911Z,100340.33
2023-04-19T13:55:49.504Z,100341.09
2023-04-19T13:58:18.926Z,100342.46
2023-04-19T14:00:48.300Z,100345.17
2023-04-19T14:03:16.759Z,100343.08
2023-04-19T14:05:45.144Z,100346.98
2023-04-19T14:08:13.246Z,100350.73
2023-04-19T14:10:41.596Z,100350.95
2023-04-19T14:13:09.815Z,100349.76
2023-04-19T14:15:37.898Z,100351.27
2023-04-19T14:18:06.405Z,100357.45
2023-04-19T14:20:34.847Z,100359.05
2023-04-19T14:23:03.199Z,100361.46
2023-04-19T14:25:31.818Z,100360.34
2023-04-19T14:27:59.863Z,100357.47
2023-04-19T14:30:28.854Z,100357.88
2023-04-19T14:32:59.265Z,100357.83
2023-04-19T14:35:27.570Z,100359.48
2023-04-19T14:37:55.677Z,100354.90
2023-04-19T14:40:23.972Z,100352.60
2023-04-19T14:42:53.405Z,100354.25
2023-04-19T14:45:21.463Z,100356.55
2023-04-19T14:47:49.622Z,100356.27
2023-04-19T14:50:17.822Z,100354.11
2023-04-19T14:52:46.048Z,100356.04
2023-04-19T14:55:14.350Z,100353.05
2023-04-19T14:57:42.369Z,100354.73
2023-04-19T15:00:11.064Z,100353.83
2023-04-19T15:02:39.314Z,100352.45
2023-04-19T15:05:08.235Z,100352.38
2023-04-19T15:07:37.952Z,100352.33
2023-04-19T15:10:06.794Z,100354.02
2023-04-19T15:12:35.403Z,100359.50
2023-04-19T15:15:05.275Z,100360.00
2023-04-19T15:17:33.748Z,100364.02
2023-04-19T15:20:02.196Z,100364.23
2023-04-19T15:22:30.839Z,100365.85
2023-04-19T15:25:00.955Z,100366.00
2023-04-19T15:27:29.498Z,100365.36
2023-04-19T15:29:57.572Z,100367.05
2023-04-19T15:32:25.939Z,100365.70
2023-04-19T15:34:53.967Z,100361.16
2023-04-19T15:37:22.068Z,100359.01
2023-04-19T15:39:50.360Z,100359.23
2023-04-19T15:42:18.429Z,100356.45
2023-04-19T15:44:46.509Z,100356.29
2023-04-19T15:47:14.562Z,100348.00
2023-04-19T15:49:42.632Z,100344.77
2023-04-19T15:52:12.133Z,100339.36
2023-04-19T15:54:40.265Z,100335.97
2023-04-19T15:57:08.284Z,100334.98
2023-04-19T15:59:36.761Z,100333.62
2023-04-19T16:02:04.904Z,100337.14
2023-04-19T16:04:34.372Z,100335.91
2023-04-19T16:07:02.492Z,100334.86
2023-04-19T16:09:30.736Z,100335.38
2023-04-19T16:11:59.005Z,100339.96
2023-04-19T16:14:27.222Z,100343.73
2023-04-19T16:16:55.286Z,100341.39
2023-04-19T16:19:23.553Z,100339.81
2023-04-19T16:21:51.702Z,100341.63
2023-04-19T16:24:20.234Z,100341.73
2023-04-19T16:26:48.296Z,100348.10
2023-04-19T16:29:16.569Z,100345.80
2023-04-19T16:31:44.953Z,100347.05
2023-04-19T16:34:13.067Z,100349.11
2023-04-19T16:36:44.773Z,100344.00
2023-04-19T16:39:13.015Z,100348.73
2023-04-19T16:41:41.028Z,100349.86
2023-04-19T16:44:09.034Z,100349.66
2023-04-19T16:46:37.541Z,100351.95
2023-04-19T16:49:05.687Z,100353.68
2023-04-19T16:51:33.995Z,100351.83
2023-04-19T16:54:02.161Z,100352.98
2023-04-19T16:56:30.668Z,100358.77
2023-04-19T16:58:58.820Z,100361.17
2023-04-19T17:01:26.984Z,100364.34
2023-04-19T17:03:55.295Z,100369.66
2023-04-19T17:06:23.538Z,100376.64
2023-04-19T17:08:51.708Z,100382.42
2023-04-19T17:11:19.882Z,100382.09
2023-04-19T17:13:48.023Z,100383.84
2023-04-19T17:16:16.075Z,100382.89
2023-04-19T17:18:44.134Z,100388.77
2023-04-19T17:21:13.145Z,100386.85
2023-04-19T17:23:41.593Z,100390.45
2023-04-19T17:26:09.921Z,100393.61
2023-04-19T17:28:37.988Z,100396.80
2023-04-19T17:31:06.225Z,100395.89
2023-04-19T17:33:34.837Z,100399.96
2023-04-19T17:36:03.726Z,100403.61
2023-04-19T17:38:32.773Z,100407.65
2023-04-19T17:41:02.805Z,100413.95
2023-04-19T17:43:31.183Z,100412.98
2023-04-19T17:45:59.714Z,100417.40
2023-04-19T17:48:27.832Z,100419.27
2023-04-19T17:50:56.248Z,100419.38
2023-04-19T17:53:24.370Z,100421.26
2023-04-19T17:55:52.375Z,100422.76
2023-04-19T17:58:20.847Z,100422.86
2023-04-19T18:00:49.006Z,100423.84
2023-04-19T18:03:17.240Z,100426.56
2023-04-19T18:05:45.320Z,100424.47
2023-04-19T18:08:13.682Z,100425.36
2023-04-19T18:10:41.711Z,100431.02
2023-04-19T18:13:09.735Z,100431.73
2023-04-19T18:15:38.030Z,100431.20
2023-04-19T18:18:06.307Z,100432.29
2023-04-19T18:20:34.481Z,100430.13
2023-04-19T18:23:03.239Z,100432.04
2023-04-19T18:25:31.372Z,100432.72
2023-04-19T18:27:59.535Z,100436.64
2023-04-19T18:30:27.690Z,100437.97
2023-04-19T18:32:55.861Z,100439.46
2023-04-19T18:35:23.933Z,100439.39
2023-04-19T18:37:52.307Z,100441.95
2023-04-19T18:40:20.426Z,100445.28
2023-04-19T18:42:48.583Z,100447.19
2023-04-19T18:45:16.815Z,100448.81
2023-04-19T18:47:45.044Z,100451.58
2023-04-19T18:50:15.421Z,100457.92
2023-04-19T18:52:46.624Z,100460.67
2023-04-19T18:55:16.085Z,100461.65
2023-04-19T18:57:44.296Z,100463.60
2023-04-19T19:00:13.122Z,100461.55
2023-04-19T19:02:41.675Z,100462.14
2023-04-19T19:05:12.529Z,100466.83
2023-04-19T19:07:42.986Z,100468.91
2023-04-19T19:12:43.009Z,100470.24
2023-04-19T19:15:11.140Z,100467.94
2023-04-19T19:17:39.892Z,100470.33
2023-04-19T19:20:09.867Z,100469.92
2023-04-19T19:22:38.060Z,100465.92
2023-04-19T19:25:06.909Z,100469.38
2023-04-19T19:27:35.358Z,100466.16
2023-04-19T19:30:04.936Z,100460.07
2023-04-19T19:32:33.287Z,100460.63
2023-04-19T19:35:06.249Z,100458.99
2023-04-19T19:37:38.788Z,100461.69
2023-04-19T19:40:11.062Z,100460.30
2023-04-19T19:42:39.605Z,100457.66
2023-04-19T19:45:09.129Z,100454.12
2023-04-19T19:47:44.155Z,100448.70
2023-04-19T19:51:01.066Z,100448.16
2023-04-19T19:53:02.421Z,100446.59
2023-04-19T19:55:30.924Z,100448.23
2023-04-19T20:03:01.639Z,100447.09
2023-04-19T20:05:30.994Z,100446.25
2023-04-19T20:08:10.421Z,100446.59
2023-04-19T20:10:39.509Z,100442.77
2023-04-19T20:13:07.595Z,100442.50
2023-04-19T20:15:36.650Z,100437.23
2023-04-19T20:18:05.406Z,100439.65
2023-04-19T20:20:35.229Z,100440.18
2023-04-19T20:23:03.433Z,100436.14
2023-04-19T20:25:32.893Z,100436.95
2023-04-19T20:28:01.442Z,100440.65
2023-04-19T20:30:30.102Z,100434.75
2023-04-19T20:32:58.516Z,100430.69
2023-04-19T20:35:27.189Z,100431.86
2023-04-19T20:38:02.337Z,100430.39
2023-04-19T20:40:30.706Z,100431.31
2023-04-19T20:42:58.889Z,100429.86
2023-04-19T20:45:27.716Z,100429.86
2023-04-19T20:47:55.983Z,100429.77
2023-04-19T20:50:24.100Z,100426.16
2023-04-19T20:52:52.412Z,100423.46
2023-04-19T20:55:20.407Z,100422.58
2023-04-19T20:57:48.464Z,100423.46
2023-04-19T21:00:16.937Z,100419.29
2023-04-19T21:02:45.498Z,100418.27
2023-04-19T21:05:13.643Z,100411.93
2023-04-19T21:07:42.085Z,100413.57
2023-04-19T21:10:11.498Z,100411.17
2023-04-19T21:12:39.622Z,100409.37
2023-04-19T21:27:22.417Z,100405.00
2023-04-19T21:29:50.716Z,100407.36
2023-04-19T21:32:19.072Z,100404.73
2023-04-19T21:34:48.290Z,100403.29
2023-04-19T21:37:17.593Z,100398.30
2023-04-19T21:39:45.624Z,100396.92
2023-04-19T21:42:13.685Z,100399.35
2023-04-19T21:44:41.889Z,100394.33
2023-04-19T21:47:10.112Z,100390.80
2023-04-19T21:49:38.408Z,100386.81
2023-04-19T21:52:06.485Z,100389.36
2023-04-19T21:54:35.025Z,100387.64
2023-04-19T21:57:03.285Z,100382.41
2023-04-19T21:59:34.882Z,100378.73
2023-04-19T22:02:03.667Z,100374.20
2023-04-19T22:04:31.981Z,100372.25
2023-04-19T22:07:03.178Z,100373.45
2023-04-19T22:09:31.379Z,100373.83
2023-04-19T22:12:01.057Z,100371.25
2023-04-19T22:14:30.875Z,100367.18
2023-04-19T22:17:02.706Z,100365.10
2023-04-19T22:19:31.789Z,100363.02
2023-04-19T22:22:00.459Z,100362.27
2023-04-19T22:24:28.771Z,100361.94
2023-04-19T22:26:57.521Z,100358.91
2023-04-19T22:29:25.619Z,100355.16
2023-04-19T22:31:53.835Z,100351.52
2023-04-19T22:34:22.078Z,100347.23
2023-04-19T22:36:50.214Z,100346.54
2023-04-19T22:39:18.601Z,100343.11
2023-04-19T22:41:46.740Z,100341.25
2023-04-19T22:44:14.886Z,100338.84
2023-04-19T22:46:43.952Z,100337.77
2023-04-19T22:49:12.059Z,100337.44
2023-04-19T22:51:42.495Z,100339.96
2023-04-19T22:54:10.680Z,100332.75
2023-04-19T22:56:39.513Z,100331.72
2023-04-19T22:59:08.413Z,100329.90
2023-04-19T23:01:36.649Z,100327.65
2023-04-19T23:04:05.058Z,100324.48
2023-04-19T23:06:36.953Z,100321.86
2023-04-19T23:09:05.114Z,100322.04
2023-04-19T23:11:34.878Z,100316.74
2023-04-19T23:14:04.081Z,100318.54
2023-04-19T23:16:33.461Z,100315.84
2023-04-19T23:19:01.551Z,100309.34
2023-04-19T23:21:30.179Z,100309.23
2023-04-19T23:23:58.220Z,100309.65
2023-04-19T23:26:26.355Z,100306.05
2023-04-19T23:28:54.392Z,100305.03
2023-04-19T23:31:22.465Z,100305.64
2023-04-19T23:33:50.558Z,100302.70
2023-04-19T23:36:18.793Z,100303.36
2023-04-19T23:38:46.845Z,100299.48
2023-04-19T23:41:14.895Z,100299.48
2023-04-19T23:43:45.583Z,100298.33
2023-04-19T23:46:13.861Z,100299.40
2023-04-19T23:48:42.153Z,100299.45
2023-04-19T23:51:12.447Z,100296.98
2023-04-19T23:53:40.820Z,100292.48
2023-04-19T23:56:08.863Z,100290.59
2023-04-19T23:58:37.140Z,100290.77
